Adger, AL (35006)

10:17 PM CST on February 05, 2016 (GMT -0600)
Alliance | | Change Station
CLOSE
Current Station
Personal Weather Station
Location: Bessemer, AL
Elevation: 545 ft
Nearby Weather Stations

Elev 545 ft 33.52 °N, 87.14 °W | Updated 20 seconds ago

Clear
Clear
32.0 °F
Feels Like 32 °F
N
0.0
Wind Variable Wind from East

Today
High -- | Low -- °F
--% Chance of Precip.
Yesterday
High -- | Low -- °F
Precip. -- in
Pressure 30.41 in
Visibility 10.0 miles
Clouds Scattered Clouds 15000 ft
Windchill 32 °F
Dew Point 21 °F
Humidity 64%
Rainfall 0.00 in
Snow Depth Not available.
6:42 AM 5:23 PM
Waning Crescent, 7% visible
METAR KBHM 060353Z 00000KT 10SM SCT150 02/M04 A3040 RMK AO2 SLP298 T00221044
Pressure 30.41 in
Visibility 10.0 miles
Clouds Scattered Clouds 15000 ft
Windchill 32 °F
Dew Point 21 °F
Humidity 64%
Rainfall 0.00 in
Snow Depth Not available.
6:42 AM 5:23 PM
Waning Crescent, 7% visible
METAR KBHM 060353Z 00000KT 10SM SCT150 02/M04 A3040 RMK AO2 SLP298 T00221044

10-Day Weather Forecast

Almanac

Astronomy

Feb. 05, 2016 Rise Set
Actual Time
Civil Twilight
Nautical Twilight
Astronomical Twilight
Moon
Length of Visible Light
Length of Day
Tomorrow will be .
, % of the Moon is Illuminated

Today's Extremes

State Highs State Lows

Community

WunderPhotos

Upload Photos

1,890,917 photos uploaded!

WunderBlog® & News

Nearby

Air Quality

  Air Quality AQ Index Pollutant
Not available.

Snow Depth

Station Depth Elevation

Earthquake Activity

City Distance Mag. Time & Date
Minimum magnitude displayed is 2.5.

Coastal Water Temperatures

Place Temperature

Stations

Nearby Weather Stations

Station Location Temp. Windchill Dew Point Humidity Wind Precip. Elev Updated Type
                   

Watches & Warnings

There are currently no watches in effect.